sensor_id;sensor_type;location;lat;lon;timestamp;pressure;altitude;pressure_sealevel;temperature;humidity
62800;BME280;48842;51.046;13.796;2024-01-15T00:01:57;98534.66;;;5.17;52.07
62800;BME280;48842;51.046;13.796;2024-01-15T00:04:22;98521.72;;;5.18;52.30
62800;BME280;48842;51.046;13.796;2024-01-15T00:06:49;98541.59;;;5.15;51.92
62800;BME280;48842;51.046;13.796;2024-01-15T00:09:14;98523.44;;;5.16;51.86
62800;BME280;48842;51.046;13.796;2024-01-15T00:11:39;98522.59;;;5.13;51.99
62800;BME280;48842;51.046;13.796;2024-01-15T00:14:05;98529.50;;;5.11;51.96
62800;BME280;48842;51.046;13.796;2024-01-15T00:16:30;98539.91;;;5.03;52.10
62800;BME280;48842;51.046;13.796;2024-01-15T00:18:55;98538.19;;;5.03;52.23
62800;BME280;48842;51.046;13.796;2024-01-15T00:21:21;98525.22;;;5.00;52.23
62800;BME280;48842;51.046;13.796;2024-01-15T00:23:46;98520.91;;;4.96;52.40
62800;BME280;48842;51.046;13.796;2024-01-15T00:26:11;98526.97;;;4.89;52.51
62800;BME280;48842;51.046;13.796;2024-01-15T00:28:37;98518.34;;;4.87;52.28
62800;BME280;48842;51.046;13.796;2024-01-15T00:31:03;98520.09;;;4.86;52.57
62800;BME280;48842;51.046;13.796;2024-01-15T00:33:29;98514.88;;;4.82;52.63
62800;BME280;48842;51.046;13.796;2024-01-15T00:35:54;98527.84;;;4.80;52.83
62800;BME280;48842;51.046;13.796;2024-01-15T00:38:19;98522.69;;;4.76;53.04
62800;BME280;48842;51.046;13.796;2024-01-15T00:40:45;98518.38;;;4.76;52.96
62800;BME280;48842;51.046;13.796;2024-01-15T00:43:10;98518.38;;;4.78;52.82
62800;BME280;48842;51.046;13.796;2024-01-15T00:45:35;98522.69;;;4.79;52.56
62800;BME280;48842;51.046;13.796;2024-01-15T00:48:01;98535.66;;;4.74;53.01
62800;BME280;48842;51.046;13.796;2024-01-15T00:50:26;98507.13;;;4.79;53.13
62800;BME280;48842;51.046;13.796;2024-01-15T00:52:51;98507.09;;;4.82;53.13
62800;BME280;48842;51.046;13.796;2024-01-15T00:55:17;98501.94;;;4.85;53.24
62800;BME280;48842;51.046;13.796;2024-01-15T00:57:42;98512.31;;;4.86;53.15
62800;BME280;48842;51.046;13.796;2024-01-15T01:00:08;98524.38;;;4.86;52.97
62800;BME280;48842;51.046;13.796;2024-01-15T01:02:34;98512.31;;;4.85;53.17
62800;BME280;48842;51.046;13.796;2024-01-15T01:04:59;98513.19;;;4.81;53.12
62800;BME280;48842;51.046;13.796;2024-01-15T01:07:24;98500.22;;;4.81;52.92
62800;BME280;48842;51.046;13.796;2024-01-15T01:09:50;98491.56;;;4.79;52.75
62800;BME280;48842;51.046;13.796;2024-01-15T01:12:16;98485.53;;;4.75;53.22
62800;BME280;48842;51.046;13.796;2024-01-15T01:14:41;98488.13;;;4.74;53.01
62800;BME280;48842;51.046;13.796;2024-01-15T01:17:10;98482.94;;;4.75;52.92
62800;BME280;48842;51.046;13.796;2024-01-15T01:19:35;98482.94;;;4.77;52.55
62800;BME280;48842;51.046;13.796;2024-01-15T01:22:00;98481.19;;;4.76;52.89
62800;BME280;48842;51.046;13.796;2024-01-15T01:24:25;98495.91;;;4.74;52.55
62800;BME280;48842;51.046;13.796;2024-01-15T01:26:51;98476.91;;;4.68;53.04
62800;BME280;48842;51.046;13.796;2024-01-15T01:29:17;98462.22;;;4.64;53.06
62800;BME280;48842;51.046;13.796;2024-01-15T01:31:45;98476.91;;;4.68;52.70
62800;BME280;48842;51.046;13.796;2024-01-15T01:34:14;98469.13;;;4.68;53.10
62800;BME280;48842;51.046;13.796;2024-01-15T01:36:40;98465.66;;;4.69;52.54
62800;BME280;48842;51.046;13.796;2024-01-15T01:39:05;98456.16;;;4.67;53.01
62800;BME280;48842;51.046;13.796;2024-01-15T01:41:30;98460.50;;;4.66;52.85
62800;BME280;48842;51.046;13.796;2024-01-15T01:43:55;98454.44;;;4.63;52.63
62800;BME280;48842;51.046;13.796;2024-01-15T01:46:22;98457.94;;;4.60;52.65
62800;BME280;48842;51.046;13.796;2024-01-15T01:48:47;98441.47;;;4.61;52.91
62800;BME280;48842;51.046;13.796;2024-01-15T01:51:13;98441.47;;;4.61;52.76
62800;BME280;48842;51.046;13.796;2024-01-15T01:53:40;98452.75;;;4.59;53.22
62800;BME280;48842;51.046;13.796;2024-01-15T01:56:05;98463.97;;;4.56;52.75
62800;BME280;48842;51.046;13.796;2024-01-15T01:58:32;98463.09;;;4.55;52.71
62800;BME280;48842;51.046;13.796;2024-01-15T02:00:58;98470.88;;;4.60;52.58
62800;BME280;48842;51.046;13.796;2024-01-15T02:03:24;98451.84;;;4.61;52.76
62800;BME280;48842;51.046;13.796;2024-01-15T02:05:50;98450.13;;;4.65;52.39
62800;BME280;48842;51.046;13.796;2024-01-15T02:08:19;98455.28;;;4.69;52.74
62800;BME280;48842;51.046;13.796;2024-01-15T02:10:44;98450.09;;;4.71;52.65
62800;BME280;48842;51.046;13.796;2024-01-15T02:13:09;98449.25;;;4.69;52.23
62800;BME280;48842;51.046;13.796;2024-01-15T02:15:35;98447.53;;;4.66;51.93
62800;BME280;48842;51.046;13.796;2024-01-15T02:18:02;98444.94;;;4.66;52.07
62800;BME280;48842;51.046;13.796;2024-01-15T02:20:28;98450.97;;;4.65;51.92
62800;BME280;48842;51.046;13.796;2024-01-15T02:22:53;98438.88;;;4.63;52.13
62800;BME280;48842;51.046;13.796;2024-01-15T02:25:19;98432.00;;;4.62;52.13
62800;BME280;48842;51.046;13.796;2024-01-15T02:27:44;98438.88;;;4.61;51.97
62800;BME280;48842;51.046;13.796;2024-01-15T02:30:12;98429.41;;;4.60;52.26
62800;BME280;48842;51.046;13.796;2024-01-15T02:32:38;98434.59;;;4.52;51.91
62800;BME280;48842;51.046;13.796;2024-01-15T02:35:04;98439.78;;;4.51;51.86
62800;BME280;48842;51.046;13.796;2024-01-15T02:37:29;98440.66;;;4.51;52.11
62800;BME280;48842;51.046;13.796;2024-01-15T02:39:54;98425.97;;;4.49;52.18
62800;BME280;48842;51.046;13.796;2024-01-15T02:42:20;98438.06;;;4.44;52.45
62800;BME280;48842;51.046;13.796;2024-01-15T02:44:45;98430.31;;;4.39;52.35
62800;BME280;48842;51.046;13.796;2024-01-15T02:47:10;98404.41;;;4.37;52.15
62800;BME280;48842;51.046;13.796;2024-01-15T02:49:36;98429.47;;;4.39;52.55
62800;BME280;48842;51.046;13.796;2024-01-15T02:52:01;98413.03;;;4.35;52.58
62800;BME280;48842;51.046;13.796;2024-01-15T02:54:28;98415.63;;;4.33;52.77
62800;BME280;48842;51.046;13.796;2024-01-15T02:56:54;98410.47;;;4.40;52.46
62800;BME280;48842;51.046;13.796;2024-01-15T02:59:19;98416.50;;;4.39;52.23
62800;BME280;48842;51.046;13.796;2024-01-15T03:01:44;98407.88;;;4.40;52.52
62800;BME280;48842;51.046;13.796;2024-01-15T03:04:09;98410.44;;;4.43;52.19
62800;BME280;48842;51.046;13.796;2024-01-15T03:06:35;98411.31;;;4.37;52.21
62800;BME280;48842;51.046;13.796;2024-01-15T03:09:00;98395.78;;;4.37;52.31
62800;BME280;48842;51.046;13.796;2024-01-15T03:11:25;98407.88;;;4.33;51.82
62800;BME280;48842;51.046;13.796;2024-01-15T03:13:51;98397.53;;;4.29;51.79
62800;BME280;48842;51.046;13.796;2024-01-15T03:16:16;98406.16;;;4.34;52.22
62800;BME280;48842;51.046;13.796;2024-01-15T03:18:41;98402.69;;;4.35;52.34
62800;BME280;48842;51.046;13.796;2024-01-15T03:21:07;98400.09;;;4.32;52.23
62800;BME280;48842;51.046;13.796;2024-01-15T03:23:32;98404.44;;;4.30;51.92
62800;BME280;48842;51.046;13.796;2024-01-15T03:26:01;98395.78;;;4.26;52.47
62800;BME280;48842;51.046;13.796;2024-01-15T03:28:26;98399.25;;;4.28;51.93
62800;BME280;48842;51.046;13.796;2024-01-15T03:30:51;98388.00;;;4.26;52.11
62800;BME280;48842;51.046;13.796;2024-01-15T03:33:16;98421.69;;;4.26;52.35
62800;BME280;48842;51.046;13.796;2024-01-15T03:35:42;98417.41;;;4.19;51.56
62800;BME280;48842;51.046;13.796;2024-01-15T03:38:07;98401.88;;;4.22;51.39
62800;BME280;48842;51.046;13.796;2024-01-15T03:40:33;98413.94;;;4.23;51.82
62800;BME280;48842;51.046;13.796;2024-01-15T03:42:58;98410.50;;;4.21;52.02
62800;BME280;48842;51.046;13.796;2024-01-15T03:45:23;98421.72;;;4.15;51.62
62800;BME280;48842;51.046;13.796;2024-01-15T03:47:48;98418.31;;;4.12;52.15
62800;BME280;48842;51.046;13.796;2024-01-15T03:50:14;98425.19;;;4.14;52.09
62800;BME280;48842;51.046;13.796;2024-01-15T03:52:39;98396.69;;;4.10;51.48
62800;BME280;48842;51.046;13.796;2024-01-15T03:55:04;98414.81;;;4.13;52.23
62800;BME280;48842;51.046;13.796;2024-01-15T03:57:30;98413.09;;;4.09;52.24
62800;BME280;48842;51.046;13.796;2024-01-15T03:59:55;98470.97;;;4.08;51.94
62800;BME280;48842;51.046;13.796;2024-01-15T04:02:20;98450.25;;;4.03;52.14
62800;BME280;48842;51.046;13.796;2024-01-15T04:04:45;98407.06;;;4.04;52.34
62800;BME280;48842;51.046;13.796;2024-01-15T04:07:11;98405.34;;;4.02;52.44
62800;BME280;48842;51.046;13.796;2024-01-15T04:09:36;98410.53;;;3.99;52.93
62800;BME280;48842;51.046;13.796;2024-01-15T04:12:01;98402.78;;;3.95;52.59
62800;BME280;48842;51.046;13.796;2024-01-15T04:14:27;98408.81;;;3.95;52.90
62800;BME280;48842;51.046;13.796;2024-01-15T04:16:52;98412.28;;;3.97;52.89
62800;BME280;48842;51.046;13.796;2024-01-15T04:19:17;98401.03;;;3.97;52.37
62800;BME280;48842;51.046;13.796;2024-01-15T04:21:42;98396.72;;;3.97;52.46
62800;BME280;48842;51.046;13.796;2024-01-15T04:24:07;98400.19;;;3.96;52.87
62800;BME280;48842;51.046;13.796;2024-01-15T04:26:33;98389.84;;;3.87;52.84
62800;BME280;48842;51.046;13.796;2024-01-15T04:28:58;98377.75;;;3.89;53.06
62800;BME280;48842;51.046;13.796;2024-01-15T04:31:25;98381.19;;;3.88;53.11
62800;BME280;48842;51.046;13.796;2024-01-15T04:33:50;98386.38;;;3.82;52.83
62800;BME280;48842;51.046;13.796;2024-01-15T04:36:16;98376.88;;;3.81;53.16
62800;BME280;48842;51.046;13.796;2024-01-15T04:38:41;98385.53;;;3.80;52.77
62800;BME280;48842;51.046;13.796;2024-01-15T04:41:11;98377.75;;;3.80;52.67
62800;BME280;48842;51.046;13.796;2024-01-15T04:43:36;98386.38;;;3.79;52.47
62800;BME280;48842;51.046;13.796;2024-01-15T04:46:01;98380.34;;;3.84;52.41
62800;BME280;48842;51.046;13.796;2024-01-15T04:48:28;98385.53;;;3.78;52.49
62800;BME280;48842;51.046;13.796;2024-01-15T04:50:53;98378.63;;;3.77;52.31
62800;BME280;48842;51.046;13.796;2024-01-15T04:53:18;98382.94;;;3.77;52.94
62800;BME280;48842;51.046;13.796;2024-01-15T04:55:43;98382.06;;;3.75;52.08
62800;BME280;48842;51.046;13.796;2024-01-15T04:58:09;98405.38;;;3.70;52.45
62800;BME280;48842;51.046;13.796;2024-01-15T05:00:34;98382.94;;;3.63;52.69
62800;BME280;48842;51.046;13.796;2024-01-15T05:02:59;98401.91;;;3.57;52.28
62800;BME280;48842;51.046;13.796;2024-01-15T05:05:24;98408.81;;;3.52;52.31
62800;BME280;48842;51.046;13.796;2024-01-15T05:07:50;98395.84;;;3.46;52.60
62800;BME280;48842;51.046;13.796;2024-01-15T05:10:15;98420.88;;;3.44;52.78
62800;BME280;48842;51.046;13.796;2024-01-15T05:12:40;98401.88;;;3.39;52.89
62800;BME280;48842;51.046;13.796;2024-01-15T05:15:06;98413.13;;;3.36;52.87
62800;BME280;48842;51.046;13.796;2024-01-15T05:17:31;98407.94;;;3.41;52.75
62800;BME280;48842;51.046;13.796;2024-01-15T05:19:56;98407.94;;;3.39;52.27
62800;BME280;48842;51.046;13.796;2024-01-15T05:22:21;98412.25;;;3.32;52.92
62800;BME280;48842;51.046;13.796;2024-01-15T05:24:49;98417.41;;;3.36;52.70
62800;BME280;48842;51.046;13.796;2024-01-15T05:27:14;98412.25;;;3.36;52.99
62800;BME280;48842;51.046;13.796;2024-01-15T05:29:40;98424.31;;;3.37;52.73
62800;BME280;48842;51.046;13.796;2024-01-15T05:32:05;98430.34;;;3.37;52.92
62800;BME280;48842;51.046;13.796;2024-01-15T05:34:30;98411.38;;;3.43;52.72
62800;BME280;48842;51.046;13.796;2024-01-15T05:36:55;98409.69;;;3.45;52.86
62800;BME280;48842;51.046;13.796;2024-01-15T05:39:21;98424.31;;;3.43;52.83
62800;BME280;48842;51.046;13.796;2024-01-15T05:41:46;98402.78;;;3.33;53.02
62800;BME280;48842;51.046;13.796;2024-01-15T05:44:11;98415.72;;;3.35;52.68
62800;BME280;48842;51.046;13.796;2024-01-15T05:46:40;98399.31;;;3.34;53.06
62800;BME280;48842;51.046;13.796;2024-01-15T05:49:05;98390.69;;;3.40;53.31
62800;BME280;48842;51.046;13.796;2024-01-15T05:51:30;98405.34;;;3.41;52.66
62800;BME280;48842;51.046;13.796;2024-01-15T05:53:55;98420.03;;;3.45;52.54
62800;BME280;48842;51.046;13.796;2024-01-15T05:56:21;98419.16;;;3.41;52.58
62800;BME280;48842;51.046;13.796;2024-01-15T05:58:46;98424.34;;;3.54;52.26
62800;BME280;48842;51.046;13.796;2024-01-15T06:01:11;98409.69;;;3.54;52.52
62800;BME280;48842;51.046;13.796;2024-01-15T06:03:36;98415.72;;;3.53;52.20
62800;BME280;48842;51.046;13.796;2024-01-15T06:06:02;98423.47;;;3.50;52.48
62800;BME280;48842;51.046;13.796;2024-01-15T06:08:27;98410.53;;;3.50;51.85
62800;BME280;48842;51.046;13.796;2024-01-15T06:10:55;98407.09;;;3.48;52.52
62800;BME280;48842;51.046;13.796;2024-01-15T06:13:21;98411.41;;;3.52;51.89
62800;BME280;48842;51.046;13.796;2024-01-15T06:15:46;98395.88;;;3.55;52.01
62800;BME280;48842;51.046;13.796;2024-01-15T06:18:12;98390.69;;;3.61;51.92
62800;BME280;48842;51.046;13.796;2024-01-15T06:20:37;98398.47;;;3.58;51.54
62800;BME280;48842;51.046;13.796;2024-01-15T06:23:03;98388.97;;;3.60;51.52
62800;BME280;48842;51.046;13.796;2024-01-15T06:25:29;98390.69;;;3.64;51.26
62800;BME280;48842;51.046;13.796;2024-01-15T06:27:54;98386.38;;;3.63;50.73
62800;BME280;48842;51.046;13.796;2024-01-15T06:30:19;98382.09;;;3.58;51.18
62800;BME280;48842;51.046;13.796;2024-01-15T06:32:45;98374.31;;;3.59;50.88
62800;BME280;48842;51.046;13.796;2024-01-15T06:35:10;98378.63;;;3.57;51.11
62800;BME280;48842;51.046;13.796;2024-01-15T06:37:36;98386.38;;;3.57;50.85
62800;BME280;48842;51.046;13.796;2024-01-15T06:40:02;98376.03;;;3.60;51.08
62800;BME280;48842;51.046;13.796;2024-01-15T06:42:28;98390.72;;;3.60;50.61
62800;BME280;48842;51.046;13.796;2024-01-15T06:44:53;98390.69;;;3.64;50.91
62800;BME280;48842;51.046;13.796;2024-01-15T06:47:18;98383.78;;;3.63;50.81
62800;BME280;48842;51.046;13.796;2024-01-15T06:49:43;98388.09;;;3.64;50.79
62800;BME280;48842;51.046;13.796;2024-01-15T06:52:09;98375.16;;;3.69;50.44
62800;BME280;48842;51.046;13.796;2024-01-15T06:54:34;98372.56;;;3.67;50.41
62800;BME280;48842;51.046;13.796;2024-01-15T06:56:59;98387.25;;;3.67;50.08
62800;BME280;48842;51.046;13.796;2024-01-15T06:59:25;98384.66;;;3.72;50.17
62800;BME280;48842;51.046;13.796;2024-01-15T07:01:50;98392.44;;;3.69;50.08
62800;BME280;48842;51.046;13.796;2024-01-15T07:04:15;98375.16;;;3.66;49.95
62800;BME280;48842;51.046;13.796;2024-01-15T07:06:41;98386.41;;;3.66;50.18
62800;BME280;48842;51.046;13.796;2024-01-15T07:09:06;98397.63;;;3.64;50.51
62800;BME280;48842;51.046;13.796;2024-01-15T07:11:32;98395.03;;;3.67;49.96
62800;BME280;48842;51.046;13.796;2024-01-15T07:13:58;98419.16;;;3.69;50.02
62800;BME280;48842;51.046;13.796;2024-01-15T07:16:23;98399.34;;;3.71;49.76
62800;BME280;48842;51.046;13.796;2024-01-15T07:18:48;98395.88;;;3.72;50.20
62800;BME280;48842;51.046;13.796;2024-01-15T07:21:14;98407.97;;;3.69;50.17
62800;BME280;48842;51.046;13.796;2024-01-15T07:23:39;98403.63;;;3.71;49.86
62800;BME280;48842;51.046;13.796;2024-01-15T07:26:05;98412.28;;;3.76;49.97
62800;BME280;48842;51.046;13.796;2024-01-15T07:28:30;98424.38;;;3.77;50.07
62800;BME280;48842;51.046;13.796;2024-01-15T07:30:59;98447.63;;;3.72;49.94
62800;BME280;48842;51.046;13.796;2024-01-15T07:33:26;98432.13;;;3.77;49.47
62800;BME280;48842;51.046;13.796;2024-01-15T07:35:51;98429.53;;;3.74;49.57
62800;BME280;48842;51.046;13.796;2024-01-15T07:38:17;98447.63;;;3.72;49.79
62800;BME280;48842;51.046;13.796;2024-01-15T07:40:42;98429.53;;;3.67;50.05
62800;BME280;48842;51.046;13.796;2024-01-15T07:43:07;98434.69;;;3.67;50.02
62800;BME280;48842;51.046;13.796;2024-01-15T07:45:33;98431.25;;;3.65;50.23
62800;BME280;48842;51.046;13.796;2024-01-15T07:47:58;98436.44;;;3.69;50.07
62800;BME280;48842;51.046;13.796;2024-01-15T07:50:24;98440.72;;;3.65;50.08
62800;BME280;48842;51.046;13.796;2024-01-15T07:52:49;98426.94;;;3.61;49.79
62800;BME280;48842;51.046;13.796;2024-01-15T07:55:15;98427.81;;;3.66;50.57
62800;BME280;48842;51.046;13.796;2024-01-15T07:57:40;98434.69;;;3.71;50.35
62800;BME280;48842;51.046;13.796;2024-01-15T08:00:06;98423.50;;;3.75;50.01
62800;BME280;48842;51.046;13.796;2024-01-15T08:02:31;98431.25;;;3.72;50.00
62800;BME280;48842;51.046;13.796;2024-01-15T08:04:57;98419.19;;;3.75;50.22
62800;BME280;48842;51.046;13.796;2024-01-15T08:07:24;98430.41;;;3.82;50.08
62800;BME280;48842;51.046;13.796;2024-01-15T08:09:50;98427.78;;;3.88;50.18
62800;BME280;48842;51.046;13.796;2024-01-15T08:12:16;98435.56;;;3.90;49.95
62800;BME280;48842;51.046;13.796;2024-01-15T08:14:41;98424.34;;;3.92;49.66
62800;BME280;48842;51.046;13.796;2024-01-15T08:17:06;98427.81;;;3.97;49.33
62800;BME280;48842;51.046;13.796;2024-01-15T08:19:32;98430.41;;;3.99;49.49
62800;BME280;48842;51.046;13.796;2024-01-15T08:21:57;98430.41;;;4.00;49.48
62800;BME280;48842;51.046;13.796;2024-01-15T08:24:22;98448.53;;;3.96;49.34
62800;BME280;48842;51.046;13.796;2024-01-15T08:26:48;98430.38;;;3.91;49.04
62800;BME280;48842;51.046;13.796;2024-01-15T08:29:13;98438.16;;;3.88;49.17
62800;BME280;48842;51.046;13.796;2024-01-15T08:31:38;98458.88;;;3.85;48.97
62800;BME280;48842;51.046;13.796;2024-01-15T08:34:03;98426.97;;;3.78;49.66
62800;BME280;48842;51.046;13.796;2024-01-15T08:36:29;98431.25;;;3.81;49.11
62800;BME280;48842;51.046;13.796;2024-01-15T08:38:56;98450.25;;;3.86;49.66
62800;BME280;48842;51.046;13.796;2024-01-15T08:41:21;98438.16;;;3.88;49.27
62800;BME280;48842;51.046;13.796;2024-01-15T08:43:46;98439.00;;;3.84;49.14
62800;BME280;48842;51.046;13.796;2024-01-15T08:46:12;98448.50;;;3.85;49.24
62800;BME280;48842;51.046;13.796;2024-01-15T08:48:37;98428.66;;;3.81;49.38
62800;BME280;48842;51.046;13.796;2024-01-15T08:51:03;98447.66;;;3.81;49.25
62800;BME280;48842;51.046;13.796;2024-01-15T08:53:28;98434.72;;;3.83;49.19
62800;BME280;48842;51.046;13.796;2024-01-15T08:55:53;98440.75;;;3.76;48.84
62800;BME280;48842;51.046;13.796;2024-01-15T08:58:19;98426.94;;;3.91;49.04
62800;BME280;48842;51.046;13.796;2024-01-15T09:00:44;98441.59;;;4.01;48.75
62800;BME280;48842;51.046;13.796;2024-01-15T09:03:10;98436.41;;;4.06;48.62
62800;BME280;48842;51.046;13.796;2024-01-15T09:05:35;98437.28;;;4.08;49.04
62800;BME280;48842;51.046;13.796;2024-01-15T09:08:00;98452.84;;;4.06;48.57
62800;BME280;48842;51.046;13.796;2024-01-15T09:10:26;98450.22;;;4.01;48.77
62800;BME280;48842;51.046;13.796;2024-01-15T09:12:51;98451.97;;;4.02;48.21
62800;BME280;48842;51.046;13.796;2024-01-15T09:15:16;98447.66;;;4.05;48.31
62800;BME280;48842;51.046;13.796;2024-01-15T09:17:42;98464.06;;;4.07;48.55
62800;BME280;48842;51.046;13.796;2024-01-15T09:20:08;98448.50;;;4.07;48.40
62800;BME280;48842;51.046;13.796;2024-01-15T09:22:34;98452.81;;;4.15;48.56
62800;BME280;48842;51.046;13.796;2024-01-15T09:24:59;98432.94;;;4.25;48.49
62800;BME280;48842;51.046;13.796;2024-01-15T09:27:25;98442.44;;;4.25;47.95
62800;BME280;48842;51.046;13.796;2024-01-15T09:29:53;98472.66;;;4.29;47.79
62800;BME280;48842;51.046;13.796;2024-01-15T09:32:19;98436.38;;;4.43;47.84
62800;BME280;48842;51.046;13.796;2024-01-15T09:34:47;98441.53;;;4.49;47.66
62800;BME280;48842;51.046;13.796;2024-01-15T09:37:14;98463.13;;;4.45;47.30
62800;BME280;48842;51.046;13.796;2024-01-15T09:39:40;98437.22;;;4.46;47.36
62800;BME280;48842;51.046;13.796;2024-01-15T09:42:06;98473.50;;;4.49;47.34
62800;BME280;48842;51.046;13.796;2024-01-15T09:44:32;98436.31;;;4.57;46.62
62800;BME280;48842;51.046;13.796;2024-01-15T09:46:57;98454.44;;;4.72;46.83
62800;BME280;48842;51.046;13.796;2024-01-15T09:49:23;98448.38;;;4.75;46.24
62800;BME280;48842;51.046;13.796;2024-01-15T09:51:48;98444.88;;;4.82;46.69
62800;BME280;48842;51.046;13.796;2024-01-15T09:54:15;98440.56;;;4.81;46.43
62800;BME280;48842;51.046;13.796;2024-01-15T09:56:45;98436.25;;;4.77;46.09
62800;BME280;48842;51.046;13.796;2024-01-15T09:59:15;98439.72;;;4.72;46.60
62800;BME280;48842;51.046;13.796;2024-01-15T10:01:43;98458.75;;;4.68;46.49
62800;BME280;48842;51.046;13.796;2024-01-15T10:04:09;98432.81;;;4.78;46.18
62800;BME280;48842;51.046;13.796;2024-01-15T10:06:35;98426.72;;;4.88;46.72
62800;BME280;48842;51.046;13.796;2024-01-15T10:09:01;98448.28;;;4.93;45.91
62800;BME280;48842;51.046;13.796;2024-01-15T10:11:28;98433.63;;;4.92;46.09
62800;BME280;48842;51.046;13.796;2024-01-15T10:13:54;98427.56;;;4.87;46.06
62800;BME280;48842;51.046;13.796;2024-01-15T10:16:22;98431.09;;;4.74;46.15
62800;BME280;48842;51.046;13.796;2024-01-15T10:18:48;98433.66;;;4.78;46.31
62800;BME280;48842;51.046;13.796;2024-01-15T10:21:14;98450.06;;;4.82;45.92
62800;BME280;48842;51.046;13.796;2024-01-15T10:23:39;98426.72;;;4.82;45.71
62800;BME280;48842;51.046;13.796;2024-01-15T10:26:04;98405.06;;;4.89;45.96
62800;BME280;48842;51.046;13.796;2024-01-15T10:28:30;98417.16;;;4.93;45.57
62800;BME280;48842;51.046;13.796;2024-01-15T10:30:57;98402.38;;;5.09;45.61
62800;BME280;48842;51.046;13.796;2024-01-15T10:33:24;98419.59;;;5.21;45.67
62800;BME280;48842;51.046;13.796;2024-01-15T10:35:54;98405.72;;;5.27;45.51
62800;BME280;48842;51.046;13.796;2024-01-15T10:38:20;98424.75;;;5.33;45.40
62800;BME280;48842;51.046;13.796;2024-01-15T10:40:48;98443.78;;;5.29;44.98
62800;BME280;48842;51.046;13.796;2024-01-15T10:43:16;98405.75;;;5.23;44.97
62800;BME280;48842;51.046;13.796;2024-01-15T10:45:46;98404.84;;;5.29;45.11
62800;BME280;48842;51.046;13.796;2024-01-15T10:48:12;98407.38;;;5.38;45.08
62800;BME280;48842;51.046;13.796;2024-01-15T10:50:37;98422.94;;;5.46;45.08
62800;BME280;48842;51.046;13.796;2024-01-15T10:53:03;98408.16;;;5.51;44.85
62800;BME280;48842;51.046;13.796;2024-01-15T10:55:30;98420.28;;;5.54;44.76
62800;BME280;48842;51.046;13.796;2024-01-15T10:57:57;98413.38;;;5.50;44.41
62800;BME280;48842;51.046;13.796;2024-01-15T11:00:22;98416.84;;;5.49;44.57
62800;BME280;48842;51.046;13.796;2024-01-15T11:02:47;98414.22;;;5.50;44.72
62800;BME280;48842;51.046;13.796;2024-01-15T11:05:13;98420.28;;;5.54;44.61
62800;BME280;48842;51.046;13.796;2024-01-15T11:07:41;98396.81;;;5.63;44.62
62800;BME280;48842;51.046;13.796;2024-01-15T11:10:07;98428.84;;;5.65;44.42
62800;BME280;48842;51.046;13.796;2024-01-15T11:12:35;98415.03;;;5.58;44.10
62800;BME280;48842;51.046;13.796;2024-01-15T11:15:02;98417.66;;;5.57;44.32
62800;BME280;48842;51.046;13.796;2024-01-15T11:17:59;98402.94;;;5.56;44.59
62800;BME280;48842;51.046;13.796;2024-01-15T11:20:30;98415.97;;;5.51;44.35
62800;BME280;48842;51.046;13.796;2024-01-15T11:22:57;98420.34;;;5.41;44.29
62800;BME280;48842;51.046;13.796;2024-01-15T11:25:34;98415.25;;;5.26;44.18
62800;BME280;48842;51.046;13.796;2024-01-15T11:28:00;98411.78;;;5.25;44.21
62800;BME280;48842;51.046;13.796;2024-01-15T11:30:25;98402.28;;;5.28;44.37
62800;BME280;48842;51.046;13.796;2024-01-15T11:32:51;98415.25;;;5.26;44.32
62800;BME280;48842;51.046;13.796;2024-01-15T11:35:17;98390.19;;;5.23;44.62
62800;BME280;48842;51.046;13.796;2024-01-15T11:40:36;98396.25;;;5.21;44.71
62800;BME280;48842;51.046;13.796;2024-01-15T11:43:03;98383.25;;;5.22;44.63
62800;BME280;48842;51.046;13.796;2024-01-15T11:45:30;98385.84;;;5.25;44.79
62800;BME280;48842;51.046;13.796;2024-01-15T11:48:17;98397.91;;;5.31;44.60
62800;BME280;48842;51.046;13.796;2024-01-15T11:50:50;98382.31;;;5.34;44.75
62800;BME280;48842;51.046;13.796;2024-01-15T11:53:27;98390.94;;;5.39;44.26
62800;BME280;48842;51.046;13.796;2024-01-15T11:55:59;98386.53;;;5.51;44.33
62800;BME280;48842;51.046;13.796;2024-01-15T11:58:26;98379.59;;;5.53;44.07
62800;BME280;48842;51.046;13.796;2024-01-15T12:00:52;98372.63;;;5.59;44.17
62800;BME280;48842;51.046;13.796;2024-01-15T12:03:20;98382.13;;;5.59;44.08
62800;BME280;48842;51.046;13.796;2024-01-15T12:05:46;98377.75;;;5.66;44.08
62800;BME280;48842;51.046;13.796;2024-01-15T12:08:11;98376.81;;;5.74;44.19
62800;BME280;48842;51.046;13.796;2024-01-15T12:10:38;98388.19;;;5.63;43.76
62800;BME280;48842;51.046;13.796;2024-01-15T12:13:07;98377.81;;;5.59;43.88
62800;BME280;48842;51.046;13.796;2024-01-15T12:15:34;98393.41;;;5.58;43.98
62800;BME280;48842;51.046;13.796;2024-01-15T12:18:01;98385.59;;;5.61;44.31
62800;BME280;48842;51.046;13.796;2024-01-15T12:20:30;98400.25;;;5.70;44.45
62800;BME280;48842;51.046;13.796;2024-01-15T12:22:56;98380.34;;;5.67;44.08
62800;BME280;48842;51.046;13.796;2024-01-15T12:25:22;98365.66;;;5.65;44.30
62800;BME280;48842;51.046;13.796;2024-01-15T12:27:48;98382.97;;;5.64;44.88
62800;BME280;48842;51.046;13.796;2024-01-15T12:30:13;98378.66;;;5.60;44.60
62800;BME280;48842;51.046;13.796;2024-01-15T12:32:41;98376.13;;;5.54;45.05
62800;BME280;48842;51.046;13.796;2024-01-15T12:35:08;98373.47;;;5.60;45.01
62800;BME280;48842;51.046;13.796;2024-01-15T12:37:40;98374.34;;;5.64;45.02
62800;BME280;48842;51.046;13.796;2024-01-15T12:40:10;98376.09;;;5.58;45.21
62800;BME280;48842;51.046;13.796;2024-01-15T12:42:44;98359.59;;;5.64;45.56
62800;BME280;48842;51.046;13.796;2024-01-15T12:45:12;98405.53;;;5.54;45.14
62800;BME280;48842;51.046;13.796;2024-01-15T12:47:38;98373.56;;;5.51;45.71
62800;BME280;48842;51.046;13.796;2024-01-15T12:50:08;98375.31;;;5.46;45.82
62800;BME280;48842;51.046;13.796;2024-01-15T12:52:34;98380.56;;;5.41;46.17
62800;BME280;48842;51.046;13.796;2024-01-15T12:54:59;98370.22;;;5.36;46.60
62800;BME280;48842;51.046;13.796;2024-01-15T12:57:25;98371.06;;;5.37;46.21